sensor_id;sensor_type;location;lat;lon;timestamp;P1;durP1;ratioP1;P2;durP2;ratioP2
78916;SDS011;68315;48.608;11.436;2023-07-13T00:01:43;5.47;;;3.85;;
78916;SDS011;68315;48.608;11.436;2023-07-13T00:04:09;6.35;;;3.75;;
78916;SDS011;68315;48.608;11.436;2023-07-13T00:06:34;4.85;;;4.13;;
78916;SDS011;68315;48.608;11.436;2023-07-13T00:09:00;4.70;;;4.07;;
78916;SDS011;68315;48.608;11.436;2023-07-13T00:11:26;4.53;;;4.03;;
78916;SDS011;68315;48.608;11.436;2023-07-13T00:13:51;4.97;;;4.30;;
78916;SDS011;68315;48.608;11.436;2023-07-13T00:16:16;6.07;;;4.50;;
78916;SDS011;68315;48.608;11.436;2023-07-13T00:18:43;5.68;;;4.53;;
78916;SDS011;68315;48.608;11.436;2023-07-13T00:21:09;4.88;;;4.03;;
78916;SDS011;68315;48.608;11.436;2023-07-13T00:23:35;4.18;;;3.15;;
78916;SDS011;68315;48.608;11.436;2023-07-13T00:26:02;3.60;;;3.05;;
78916;SDS011;68315;48.608;11.436;2023-07-13T00:28:29;5.53;;;3.67;;
78916;SDS011;68315;48.608;11.436;2023-07-13T00:30:55;3.25;;;2.80;;
78916;SDS011;68315;48.608;11.436;2023-07-13T00:33:20;3.65;;;3.17;;
78916;SDS011;68315;48.608;11.436;2023-07-13T00:35:46;4.60;;;3.38;;
78916;SDS011;68315;48.608;11.436;2023-07-13T00:38:11;4.13;;;3.70;;
78916;SDS011;68315;48.608;11.436;2023-07-13T00:40:37;4.82;;;3.67;;
78916;SDS011;68315;48.608;11.436;2023-07-13T00:43:02;3.55;;;3.25;;
78916;SDS011;68315;48.608;11.436;2023-07-13T00:48:11;7.93;;;4.85;;
78916;SDS011;68315;48.608;11.436;2023-07-13T00:50:38;4.90;;;4.40;;
78916;SDS011;68315;48.608;11.436;2023-07-13T00:53:05;8.48;;;4.90;;
78916;SDS011;68315;48.608;11.436;2023-07-13T00:55:30;6.03;;;3.88;;
78916;SDS011;68315;48.608;11.436;2023-07-13T00:57:56;6.53;;;5.28;;
78916;SDS011;68315;48.608;11.436;2023-07-13T01:00:21;5.50;;;4.03;;
78916;SDS011;68315;48.608;11.436;2023-07-13T01:02:48;6.70;;;4.95;;
78916;SDS011;68315;48.608;11.436;2023-07-13T01:05:19;12.27;;;5.05;;
78916;SDS011;68315;48.608;11.436;2023-07-13T01:07:46;9.15;;;4.95;;
78916;SDS011;68315;48.608;11.436;2023-07-13T01:10:13;5.53;;;4.65;;
78916;SDS011;68315;48.608;11.436;2023-07-13T01:12:39;6.40;;;4.38;;
78916;SDS011;68315;48.608;11.436;2023-07-13T01:15:04;4.68;;;3.80;;
78916;SDS011;68315;48.608;11.436;2023-07-13T01:17:34;5.30;;;4.22;;
78916;SDS011;68315;48.608;11.436;2023-07-13T01:20:00;5.70;;;4.72;;
78916;SDS011;68315;48.608;11.436;2023-07-13T01:22:25;7.97;;;5.10;;
78916;SDS011;68315;48.608;11.436;2023-07-13T01:24:52;5.38;;;4.70;;
78916;SDS011;68315;48.608;11.436;2023-07-13T01:27:22;6.65;;;4.70;;
78916;SDS011;68315;48.608;11.436;2023-07-13T01:29:50;7.30;;;4.15;;
78916;SDS011;68315;48.608;11.436;2023-07-13T01:32:17;5.38;;;4.63;;
78916;SDS011;68315;48.608;11.436;2023-07-13T01:34:49;6.32;;;4.30;;
78916;SDS011;68315;48.608;11.436;2023-07-13T01:37:19;5.47;;;4.25;;
78916;SDS011;68315;48.608;11.436;2023-07-13T01:39:45;6.55;;;3.88;;
78916;SDS011;68315;48.608;11.436;2023-07-13T01:42:11;8.93;;;5.00;;
78916;SDS011;68315;48.608;11.436;2023-07-13T01:44:37;6.40;;;4.35;;
78916;SDS011;68315;48.608;11.436;2023-07-13T01:47:02;5.22;;;4.40;;
78916;SDS011;68315;48.608;11.436;2023-07-13T01:49:27;8.73;;;5.68;;
78916;SDS011;68315;48.608;11.436;2023-07-13T01:51:53;6.53;;;4.80;;
78916;SDS011;68315;48.608;11.436;2023-07-13T01:54:18;9.55;;;6.05;;
78916;SDS011;68315;48.608;11.436;2023-07-13T01:56:44;6.45;;;4.90;;
78916;SDS011;68315;48.608;11.436;2023-07-13T01:59:09;7.00;;;6.30;;
78916;SDS011;68315;48.608;11.436;2023-07-13T02:01:34;7.40;;;6.07;;
78916;SDS011;68315;48.608;11.436;2023-07-13T02:04:00;11.15;;;7.82;;
78916;SDS011;68315;48.608;11.436;2023-07-13T02:06:25;8.93;;;6.75;;
78916;SDS011;68315;48.608;11.436;2023-07-13T02:08:50;10.52;;;8.45;;
78916;SDS011;68315;48.608;11.436;2023-07-13T02:11:15;12.88;;;9.85;;
78916;SDS011;68315;48.608;11.436;2023-07-13T02:13:42;13.50;;;9.38;;
78916;SDS011;68315;48.608;11.436;2023-07-13T02:16:07;10.23;;;7.97;;
78916;SDS011;68315;48.608;11.436;2023-07-13T02:18:32;11.75;;;9.07;;
78916;SDS011;68315;48.608;11.436;2023-07-13T02:20:58;11.85;;;9.88;;
78916;SDS011;68315;48.608;11.436;2023-07-13T02:23:23;11.20;;;9.00;;
78916;SDS011;68315;48.608;11.436;2023-07-13T02:25:48;11.23;;;7.80;;
78916;SDS011;68315;48.608;11.436;2023-07-13T02:28:14;9.65;;;7.32;;
78916;SDS011;68315;48.608;11.436;2023-07-13T02:30:39;11.48;;;8.30;;
78916;SDS011;68315;48.608;11.436;2023-07-13T02:33:05;13.38;;;9.50;;
78916;SDS011;68315;48.608;11.436;2023-07-13T02:35:30;11.38;;;9.43;;
78916;SDS011;68315;48.608;11.436;2023-07-13T02:37:56;12.90;;;8.45;;
78916;SDS011;68315;48.608;11.436;2023-07-13T02:40:21;12.40;;;10.05;;
78916;SDS011;68315;48.608;11.436;2023-07-13T02:42:46;13.98;;;10.40;;
78916;SDS011;68315;48.608;11.436;2023-07-13T02:45:12;14.10;;;10.30;;
78916;SDS011;68315;48.608;11.436;2023-07-13T02:47:39;14.93;;;10.80;;
78916;SDS011;68315;48.608;11.436;2023-07-13T02:50:06;12.30;;;9.35;;
78916;SDS011;68315;48.608;11.436;2023-07-13T02:52:31;13.07;;;9.23;;
78916;SDS011;68315;48.608;11.436;2023-07-13T02:54:57;12.10;;;8.70;;
78916;SDS011;68315;48.608;11.436;2023-07-13T02:57:22;12.40;;;9.20;;
78916;SDS011;68315;48.608;11.436;2023-07-13T02:59:47;11.48;;;8.65;;
78916;SDS011;68315;48.608;11.436;2023-07-13T03:02:13;13.13;;;7.83;;
78916;SDS011;68315;48.608;11.436;2023-07-13T03:04:38;9.10;;;6.67;;
78916;SDS011;68315;48.608;11.436;2023-07-13T03:07:04;9.52;;;7.50;;
78916;SDS011;68315;48.608;11.436;2023-07-13T03:09:31;10.73;;;8.93;;
78916;SDS011;68315;48.608;11.436;2023-07-13T03:11:58;10.15;;;8.68;;
78916;SDS011;68315;48.608;11.436;2023-07-13T03:14:23;14.77;;;10.13;;
78916;SDS011;68315;48.608;11.436;2023-07-13T03:16:48;11.80;;;8.68;;
78916;SDS011;68315;48.608;11.436;2023-07-13T03:19:14;13.65;;;8.60;;
78916;SDS011;68315;48.608;11.436;2023-07-13T03:21:39;7.90;;;7.15;;
78916;SDS011;68315;48.608;11.436;2023-07-13T03:24:04;9.30;;;8.23;;
78916;SDS011;68315;48.608;11.436;2023-07-13T03:26:30;11.43;;;9.48;;
78916;SDS011;68315;48.608;11.436;2023-07-13T03:28:55;11.85;;;8.90;;
78916;SDS011;68315;48.608;11.436;2023-07-13T03:31:21;11.50;;;9.23;;
78916;SDS011;68315;48.608;11.436;2023-07-13T03:33:48;9.30;;;8.27;;
78916;SDS011;68315;48.608;11.436;2023-07-13T03:36:15;13.40;;;9.13;;
78916;SDS011;68315;48.608;11.436;2023-07-13T03:38:49;11.50;;;8.95;;
78916;SDS011;68315;48.608;11.436;2023-07-13T03:41:19;11.45;;;8.05;;
78916;SDS011;68315;48.608;11.436;2023-07-13T03:43:45;8.98;;;8.05;;
78916;SDS011;68315;48.608;11.436;2023-07-13T03:46:12;9.50;;;7.60;;
78916;SDS011;68315;48.608;11.436;2023-07-13T03:48:37;7.93;;;6.20;;
78916;SDS011;68315;48.608;11.436;2023-07-13T03:51:05;10.68;;;6.90;;
78916;SDS011;68315;48.608;11.436;2023-07-13T03:53:30;10.15;;;6.97;;
78916;SDS011;68315;48.608;11.436;2023-07-13T03:55:55;7.03;;;5.53;;
78916;SDS011;68315;48.608;11.436;2023-07-13T04:00:57;8.80;;;5.68;;
78916;SDS011;68315;48.608;11.436;2023-07-13T04:03:23;7.40;;;5.03;;
78916;SDS011;68315;48.608;11.436;2023-07-13T04:05:49;5.57;;;5.00;;
78916;SDS011;68315;48.608;11.436;2023-07-13T04:08:14;6.18;;;4.43;;
78916;SDS011;68315;48.608;11.436;2023-07-13T04:10:39;8.15;;;4.70;;
78916;SDS011;68315;48.608;11.436;2023-07-13T04:13:05;6.05;;;4.80;;
78916;SDS011;68315;48.608;11.436;2023-07-13T04:15:31;8.85;;;5.35;;
78916;SDS011;68315;48.608;11.436;2023-07-13T04:17:57;8.38;;;5.25;;
78916;SDS011;68315;48.608;11.436;2023-07-13T04:20:24;6.45;;;4.80;;
78916;SDS011;68315;48.608;11.436;2023-07-13T04:22:50;9.30;;;5.38;;
78916;SDS011;68315;48.608;11.436;2023-07-13T04:25:16;6.28;;;4.53;;
78916;SDS011;68315;48.608;11.436;2023-07-13T04:27:41;7.20;;;4.82;;
78916;SDS011;68315;48.608;11.436;2023-07-13T04:30:06;6.00;;;4.63;;
78916;SDS011;68315;48.608;11.436;2023-07-13T04:32:32;7.50;;;4.93;;
78916;SDS011;68315;48.608;11.436;2023-07-13T04:34:57;5.13;;;4.25;;
78916;SDS011;68315;48.608;11.436;2023-07-13T04:37:24;7.75;;;4.63;;
78916;SDS011;68315;48.608;11.436;2023-07-13T04:39:50;8.00;;;4.05;;
78916;SDS011;68315;48.608;11.436;2023-07-13T04:42:15;4.87;;;4.27;;
78916;SDS011;68315;48.608;11.436;2023-07-13T04:44:41;6.25;;;4.28;;
78916;SDS011;68315;48.608;11.436;2023-07-13T04:47:06;5.57;;;3.95;;
78916;SDS011;68315;48.608;11.436;2023-07-13T04:49:32;4.05;;;3.53;;
78916;SDS011;68315;48.608;11.436;2023-07-13T04:51:57;7.68;;;4.10;;
78916;SDS011;68315;48.608;11.436;2023-07-13T04:54:22;7.57;;;3.77;;
78916;SDS011;68315;48.608;11.436;2023-07-13T04:56:47;6.27;;;3.80;;
78916;SDS011;68315;48.608;11.436;2023-07-13T04:59:13;7.33;;;4.37;;
78916;SDS011;68315;48.608;11.436;2023-07-13T05:01:38;5.95;;;3.50;;
78916;SDS011;68315;48.608;11.436;2023-07-13T05:04:03;4.22;;;3.78;;
78916;SDS011;68315;48.608;11.436;2023-07-13T05:06:29;5.82;;;3.20;;
78916;SDS011;68315;48.608;11.436;2023-07-13T05:08:55;5.68;;;3.75;;
78916;SDS011;68315;48.608;11.436;2023-07-13T05:11:20;4.18;;;3.40;;
78916;SDS011;68315;48.608;11.436;2023-07-13T05:13:46;8.30;;;3.83;;
78916;SDS011;68315;48.608;11.436;2023-07-13T05:16:12;6.15;;;4.10;;
78916;SDS011;68315;48.608;11.436;2023-07-13T05:18:37;5.53;;;3.40;;
78916;SDS011;68315;48.608;11.436;2023-07-13T05:21:04;5.78;;;3.60;;
78916;SDS011;68315;48.608;11.436;2023-07-13T05:23:31;6.90;;;4.10;;
78916;SDS011;68315;48.608;11.436;2023-07-13T05:25:57;4.70;;;3.70;;
78916;SDS011;68315;48.608;11.436;2023-07-13T05:28:22;4.20;;;3.28;;
78916;SDS011;68315;48.608;11.436;2023-07-13T05:30:48;5.53;;;3.30;;
78916;SDS011;68315;48.608;11.436;2023-07-13T05:33:14;5.70;;;3.17;;
78916;SDS011;68315;48.608;11.436;2023-07-13T05:35:40;8.50;;;3.38;;
78916;SDS011;68315;48.608;11.436;2023-07-13T05:38:05;5.32;;;3.30;;
78916;SDS011;68315;48.608;11.436;2023-07-13T05:40:31;7.97;;;3.00;;
78916;SDS011;68315;48.608;11.436;2023-07-13T05:42:56;5.13;;;3.67;;
78916;SDS011;68315;48.608;11.436;2023-07-13T05:45:21;4.88;;;2.88;;
78916;SDS011;68315;48.608;11.436;2023-07-13T05:47:47;5.57;;;3.40;;
78916;SDS011;68315;48.608;11.436;2023-07-13T05:50:12;3.22;;;2.58;;
78916;SDS011;68315;48.608;11.436;2023-07-13T05:52:37;4.15;;;3.10;;
78916;SDS011;68315;48.608;11.436;2023-07-13T05:55:03;6.38;;;3.15;;
78916;SDS011;68315;48.608;11.436;2023-07-13T05:57:29;7.50;;;3.15;;
78916;SDS011;68315;48.608;11.436;2023-07-13T05:59:55;5.53;;;2.83;;
78916;SDS011;68315;48.608;11.436;2023-07-13T06:02:20;3.20;;;2.83;;
78916;SDS011;68315;48.608;11.436;2023-07-13T06:04:45;6.03;;;3.30;;
78916;SDS011;68315;48.608;11.436;2023-07-13T06:07:10;7.53;;;3.30;;
78916;SDS011;68315;48.608;11.436;2023-07-13T06:09:36;4.57;;;2.83;;
78916;SDS011;68315;48.608;11.436;2023-07-13T06:12:01;8.30;;;3.33;;
78916;SDS011;68315;48.608;11.436;2023-07-13T06:14:26;7.82;;;3.00;;
78916;SDS011;68315;48.608;11.436;2023-07-13T06:16:52;4.97;;;2.42;;
78916;SDS011;68315;48.608;11.436;2023-07-13T06:19:17;5.57;;;2.80;;
78916;SDS011;68315;48.608;11.436;2023-07-13T06:21:42;5.88;;;3.00;;
78916;SDS011;68315;48.608;11.436;2023-07-13T06:24:07;3.75;;;2.55;;
78916;SDS011;68315;48.608;11.436;2023-07-13T06:26:33;6.65;;;3.78;;
78916;SDS011;68315;48.608;11.436;2023-07-13T06:28:58;7.30;;;2.70;;
78916;SDS011;68315;48.608;11.436;2023-07-13T06:31:23;5.27;;;2.93;;
78916;SDS011;68315;48.608;11.436;2023-07-13T06:33:48;4.60;;;2.83;;
78916;SDS011;68315;48.608;11.436;2023-07-13T06:36:14;9.10;;;2.60;;
78916;SDS011;68315;48.608;11.436;2023-07-13T06:38:39;5.55;;;2.63;;
78916;SDS011;68315;48.608;11.436;2023-07-13T06:41:05;4.68;;;2.65;;
78916;SDS011;68315;48.608;11.436;2023-07-13T06:43:32;4.10;;;2.25;;
78916;SDS011;68315;48.608;11.436;2023-07-13T06:45:58;6.60;;;2.70;;
78916;SDS011;68315;48.608;11.436;2023-07-13T06:48:23;6.90;;;2.50;;
78916;SDS011;68315;48.608;11.436;2023-07-13T06:50:49;5.03;;;2.50;;
78916;SDS011;68315;48.608;11.436;2023-07-13T06:53:16;4.35;;;2.20;;
78916;SDS011;68315;48.608;11.436;2023-07-13T06:55:43;6.45;;;2.38;;
78916;SDS011;68315;48.608;11.436;2023-07-13T06:58:09;5.95;;;2.72;;
78916;SDS011;68315;48.608;11.436;2023-07-13T07:00:34;5.50;;;2.00;;
78916;SDS011;68315;48.608;11.436;2023-07-13T07:02:59;4.50;;;2.25;;
78916;SDS011;68315;48.608;11.436;2023-07-13T07:05:24;4.10;;;2.15;;
78916;SDS011;68315;48.608;11.436;2023-07-13T07:07:50;4.10;;;2.20;;
78916;SDS011;68315;48.608;11.436;2023-07-13T07:10:17;3.40;;;2.05;;
78916;SDS011;68315;48.608;11.436;2023-07-13T07:12:44;3.03;;;1.98;;
78916;SDS011;68315;48.608;11.436;2023-07-13T07:15:09;5.30;;;2.70;;
78916;SDS011;68315;48.608;11.436;2023-07-13T07:17:35;7.53;;;2.28;;
78916;SDS011;68315;48.608;11.436;2023-07-13T07:20:01;4.93;;;2.13;;
78916;SDS011;68315;48.608;11.436;2023-07-13T07:22:27;3.72;;;2.10;;
78916;SDS011;68315;48.608;11.436;2023-07-13T07:24:52;2.78;;;2.10;;
78916;SDS011;68315;48.608;11.436;2023-07-13T07:27:18;6.03;;;2.65;;
78916;SDS011;68315;48.608;11.436;2023-07-13T07:29:43;3.80;;;2.27;;
78916;SDS011;68315;48.608;11.436;2023-07-13T07:32:09;8.88;;;2.55;;
78916;SDS011;68315;48.608;11.436;2023-07-13T07:34:34;5.95;;;2.38;;
78916;SDS011;68315;48.608;11.436;2023-07-13T07:37:00;4.60;;;1.98;;
78916;SDS011;68315;48.608;11.436;2023-07-13T07:39:26;3.97;;;2.05;;
78916;SDS011;68315;48.608;11.436;2023-07-13T07:41:51;4.28;;;2.30;;
78916;SDS011;68315;48.608;11.436;2023-07-13T07:44:17;5.68;;;2.15;;
78916;SDS011;68315;48.608;11.436;2023-07-13T07:46:42;4.45;;;2.10;;
78916;SDS011;68315;48.608;11.436;2023-07-13T07:49:07;6.53;;;2.55;;
78916;SDS011;68315;48.608;11.436;2023-07-13T07:51:33;5.38;;;2.28;;
78916;SDS011;68315;48.608;11.436;2023-07-13T07:53:58;4.10;;;2.25;;
78916;SDS011;68315;48.608;11.436;2023-07-13T07:56:23;6.15;;;2.10;;
78916;SDS011;68315;48.608;11.436;2023-07-13T07:58:48;4.82;;;2.45;;
78916;SDS011;68315;48.608;11.436;2023-07-13T08:01:14;6.73;;;2.60;;
78916;SDS011;68315;48.608;11.436;2023-07-13T08:03:39;3.47;;;2.20;;
78916;SDS011;68315;48.608;11.436;2023-07-13T08:06:04;5.75;;;2.95;;
78916;SDS011;68315;48.608;11.436;2023-07-13T08:08:29;5.45;;;2.42;;
78916;SDS011;68315;48.608;11.436;2023-07-13T08:10:55;4.97;;;1.98;;
78916;SDS011;68315;48.608;11.436;2023-07-13T08:13:20;4.38;;;2.53;;
78916;SDS011;68315;48.608;11.436;2023-07-13T08:15:46;4.65;;;2.03;;
78916;SDS011;68315;48.608;11.436;2023-07-13T08:18:11;5.55;;;2.58;;
78916;SDS011;68315;48.608;11.436;2023-07-13T08:20:37;1.92;;;1.77;;
78916;SDS011;68315;48.608;11.436;2023-07-13T08:23:03;8.85;;;2.78;;
78916;SDS011;68315;48.608;11.436;2023-07-13T08:25:28;3.25;;;2.00;;
78916;SDS011;68315;48.608;11.436;2023-07-13T08:27:54;1.83;;;1.58;;
78916;SDS011;68315;48.608;11.436;2023-07-13T08:30:19;3.10;;;1.70;;
78916;SDS011;68315;48.608;11.436;2023-07-13T08:32:44;5.18;;;1.95;;
78916;SDS011;68315;48.608;11.436;2023-07-13T08:35:09;3.37;;;1.57;;
78916;SDS011;68315;48.608;11.436;2023-07-13T08:37:35;2.72;;;1.80;;
78916;SDS011;68315;48.608;11.436;2023-07-13T08:40:00;3.88;;;1.50;;
78916;SDS011;68315;48.608;11.436;2023-07-13T08:45:14;4.10;;;1.70;;
78916;SDS011;68315;48.608;11.436;2023-07-13T08:47:50;3.60;;;1.58;;
78916;SDS011;68315;48.608;11.436;2023-07-13T08:50:23;3.70;;;2.03;;
78916;SDS011;68315;48.608;11.436;2023-07-13T08:52:52;3.95;;;1.63;;
78916;SDS011;68315;48.608;11.436;2023-07-13T08:55:41;4.30;;;1.60;;
78916;SDS011;68315;48.608;11.436;2023-07-13T08:58:12;3.08;;;1.80;;
78916;SDS011;68315;48.608;11.436;2023-07-13T09:00:45;3.08;;;1.75;;
78916;SDS011;68315;48.608;11.436;2023-07-13T09:03:21;1.90;;;1.55;;
78916;SDS011;68315;48.608;11.436;2023-07-13T09:05:56;5.68;;;1.60;;
78916;SDS011;68315;48.608;11.436;2023-07-13T09:11:18;4.18;;;1.70;;
78916;SDS011;68315;48.608;11.436;2023-07-13T09:16:30;5.13;;;1.77;;
78916;SDS011;68315;48.608;11.436;2023-07-13T09:18:58;4.05;;;1.70;;
78916;SDS011;68315;48.608;11.436;2023-07-13T09:21:31;5.43;;;1.80;;
78916;SDS011;68315;48.608;11.436;2023-07-13T09:24:26;6.53;;;1.95;;
78916;SDS011;68315;48.608;11.436;2023-07-13T09:26:47;4.18;;;1.50;;
78916;SDS011;68315;48.608;11.436;2023-07-13T09:29:19;4.47;;;1.70;;
78916;SDS011;68315;48.608;11.436;2023-07-13T09:31:53;3.00;;;1.38;;
78916;SDS011;68315;48.608;11.436;2023-07-13T09:34:23;3.08;;;1.52;;
78916;SDS011;68315;48.608;11.436;2023-07-13T09:36:48;2.95;;;1.45;;
78916;SDS011;68315;48.608;11.436;2023-07-13T09:39:15;2.27;;;1.40;;
78916;SDS011;68315;48.608;11.436;2023-07-13T09:42:01;6.00;;;1.70;;
78916;SDS011;68315;48.608;11.436;2023-07-13T09:44:51;3.42;;;1.75;;
78916;SDS011;68315;48.608;11.436;2023-07-13T09:47:22;2.63;;;1.73;;
78916;SDS011;68315;48.608;11.436;2023-07-13T09:49:55;3.42;;;1.60;;
78916;SDS011;68315;48.608;11.436;2023-07-13T09:52:26;3.00;;;1.55;;
78916;SDS011;68315;48.608;11.436;2023-07-13T09:54:52;2.90;;;1.52;;
78916;SDS011;68315;48.608;11.436;2023-07-13T09:57:24;2.33;;;1.38;;
78916;SDS011;68315;48.608;11.436;2023-07-13T09:59:51;2.80;;;1.50;;
78916;SDS011;68315;48.608;11.436;2023-07-13T10:02:28;3.55;;;1.77;;
78916;SDS011;68315;48.608;11.436;2023-07-13T10:05:01;3.78;;;1.50;;
78916;SDS011;68315;48.608;11.436;2023-07-13T10:07:28;1.98;;;1.70;;
78916;SDS011;68315;48.608;11.436;2023-07-13T10:09:55;3.10;;;1.50;;
78916;SDS011;68315;48.608;11.436;2023-07-13T10:12:22;4.55;;;1.70;;
78916;SDS011;68315;48.608;11.436;2023-07-13T10:14:54;4.57;;;1.90;;
78916;SDS011;68315;48.608;11.436;2023-07-13T10:17:25;2.78;;;1.50;;
78916;SDS011;68315;48.608;11.436;2023-07-13T10:19:55;2.17;;;1.50;;
78916;SDS011;68315;48.608;11.436;2023-07-13T10:22:31;3.10;;;1.77;;
78916;SDS011;68315;48.608;11.436;2023-07-13T10:25:12;1.92;;;1.45;;
78916;SDS011;68315;48.608;11.436;2023-07-13T10:27:41;2.10;;;1.25;;
78916;SDS011;68315;48.608;11.436;2023-07-13T10:30:09;3.80;;;1.67;;
78916;SDS011;68315;48.608;11.436;2023-07-13T10:32:39;2.90;;;1.70;;
78916;SDS011;68315;48.608;11.436;2023-07-13T10:35:05;3.35;;;1.88;;
78916;SDS011;68315;48.608;11.436;2023-07-13T10:40:17;3.47;;;1.80;;
78916;SDS011;68315;48.608;11.436;2023-07-13T10:42:47;3.17;;;1.77;;
78916;SDS011;68315;48.608;11.436;2023-07-13T10:45:16;4.63;;;2.25;;
78916;SDS011;68315;48.608;11.436;2023-07-13T10:47:46;4.68;;;2.38;;
78916;SDS011;68315;48.608;11.436;2023-07-13T10:50:15;4.03;;;1.70;;
78916;SDS011;68315;48.608;11.436;2023-07-13T10:52:46;2.58;;;1.30;;
78916;SDS011;68315;48.608;11.436;2023-07-13T10:55:32;3.50;;;1.65;;
78916;SDS011;68315;48.608;11.436;2023-07-13T10:58:11;4.53;;;2.20;;
78916;SDS011;68315;48.608;11.436;2023-07-13T11:01:02;4.07;;;1.67;;
78916;SDS011;68315;48.608;11.436;2023-07-13T11:03:28;2.92;;;1.50;;
78916;SDS011;68315;48.608;11.436;2023-07-13T11:08:36;3.28;;;1.67;;
78916;SDS011;68315;48.608;11.436;2023-07-13T11:11:03;5.65;;;1.50;;
78916;SDS011;68315;48.608;11.436;2023-07-13T11:18:40;3.58;;;2.00;;
78916;SDS011;68315;48.608;11.436;2023-07-13T11:21:27;2.03;;;1.40;;
78916;SDS011;68315;48.608;11.436;2023-07-13T11:24:03;3.10;;;1.45;;
78916;SDS011;68315;48.608;11.436;2023-07-13T11:31:57;3.47;;;1.77;;
78916;SDS011;68315;48.608;11.436;2023-07-13T11:34:36;3.58;;;1.75;;
78916;SDS011;68315;48.608;11.436;2023-07-13T11:37:03;3.08;;;1.83;;
78916;SDS011;68315;48.608;11.436;2023-07-13T11:39:37;3.83;;;2.00;;
78916;SDS011;68315;48.608;11.436;2023-07-13T11:42:08;2.50;;;1.85;;
78916;SDS011;68315;48.608;11.436;2023-07-13T11:44:41;6.38;;;2.00;;
78916;SDS011;68315;48.608;11.436;2023-07-13T11:47:22;3.60;;;2.00;;
78916;SDS011;68315;48.608;11.436;2023-07-13T11:49:54;5.82;;;1.98;;
78916;SDS011;68315;48.608;11.436;2023-07-13T11:52:35;4.25;;;1.67;;
78916;SDS011;68315;48.608;11.436;2023-07-13T11:55:03;5.07;;;1.90;;
78916;SDS011;68315;48.608;11.436;2023-07-13T11:57:40;2.38;;;1.70;;
78916;SDS011;68315;48.608;11.436;2023-07-13T12:00:11;2.92;;;2.15;;
78916;SDS011;68315;48.608;11.436;2023-07-13T12:02:40;4.75;;;2.00;;
78916;SDS011;68315;48.608;11.436;2023-07-13T12:05:10;2.65;;;1.75;;
78916;SDS011;68315;48.608;11.436;2023-07-13T12:07:38;3.33;;;1.70;;
78916;SDS011;68315;48.608;11.436;2023-07-13T12:10:15;2.20;;;1.70;;
78916;SDS011;68315;48.608;11.436;2023-07-13T12:12:46;3.15;;;1.83;;
78916;SDS011;68315;48.608;11.436;2023-07-13T12:15:20;3.97;;;1.63;;
78916;SDS011;68315;48.608;11.436;2023-07-13T12:17:47;2.78;;;1.60;;
78916;SDS011;68315;48.608;11.436;2023-07-13T12:20:27;2.70;;;1.75;;
78916;SDS011;68315;48.608;11.436;2023-07-13T12:22:58;1.88;;;1.40;;
78916;SDS011;68315;48.608;11.436;2023-07-13T12:25:24;3.80;;;2.13;;
78916;SDS011;68315;48.608;11.436;2023-07-13T12:27:50;5.95;;;2.15;;
78916;SDS011;68315;48.608;11.436;2023-07-13T12:30:24;1.70;;;1.38;;
78916;SDS011;68315;48.608;11.436;2023-07-13T12:32:59;3.65;;;1.75;;
78916;SDS011;68315;48.608;11.436;2023-07-13T12:35:28;4.05;;;1.42;;
78916;SDS011;68315;48.608;11.436;2023-07-13T12:37:56;4.25;;;1.98;;
78916;SDS011;68315;48.608;11.436;2023-07-13T12:40:24;5.25;;;1.95;;
78916;SDS011;68315;48.608;11.436;2023-07-13T12:42:53;3.78;;;1.75;;
78916;SDS011;68315;48.608;11.436;2023-07-13T12:45:20;4.32;;;1.42;;
78916;SDS011;68315;48.608;11.436;2023-07-13T12:47:49;5.70;;;1.83;;
78916;SDS011;68315;48.608;11.436;2023-07-13T12:50:18;3.13;;;1.30;;
78916;SDS011;68315;48.608;11.436;2023-07-13T12:52:50;2.30;;;1.63;;
78916;SDS011;68315;48.608;11.436;2023-07-13T12:55:20;4.35;;;1.60;;
78916;SDS011;68315;48.608;11.436;2023-07-13T12:57:50;3.03;;;1.75;;
78916;SDS011;68315;48.608;11.436;2023-07-13T13:00:25;2.33;;;1.30;;
78916;SDS011;68315;48.608;11.436;2023-07-13T13:02:53;4.33;;;1.93;;
78916;SDS011;68315;48.608;11.436;2023-07-13T13:07:52;4.53;;;1.67;;
78916;SDS011;68315;48.608;11.436;2023-07-13T13:10:17;3.85;;;2.08;;
78916;SDS011;68315;48.608;11.436;2023-07-13T13:12:43;4.85;;;1.67;;
78916;SDS011;68315;48.608;11.436;2023-07-13T13:15:09;3.20;;;1.30;;
78916;SDS011;68315;48.608;11.436;2023-07-13T13:17:35;4.22;;;1.60;;
78916;SDS011;68315;48.608;11.436;2023-07-13T13:20:01;1.88;;;1.23;;
78916;SDS011;68315;48.608;11.436;2023-07-13T13:22:26;2.28;;;1.13;;
78916;SDS011;68315;48.608;11.436;2023-07-13T13:24:51;2.20;;;1.08;;
78916;SDS011;68315;48.608;11.436;2023-07-13T13:27:20;3.23;;;1.50;;
78916;SDS011;68315;48.608;11.436;2023-07-13T13:29:48;2.35;;;1.67;;
78916;SDS011;68315;48.608;11.436;2023-07-13T13:32:16;2.78;;;1.55;;
78916;SDS011;68315;48.608;11.436;2023-07-13T13:34:42;6.28;;;1.65;;
78916;SDS011;68315;48.608;11.436;2023-07-13T13:37:20;4.18;;;1.30;;
78916;SDS011;68315;48.608;11.436;2023-07-13T13:39:48;2.17;;;1.42;;
78916;SDS011;68315;48.608;11.436;2023-07-13T13:42:14;2.55;;;1.30;;
78916;SDS011;68315;48.608;11.436;2023-07-13T13:44:39;3.13;;;1.50;;
78916;SDS011;68315;48.608;11.436;2023-07-13T13:47:16;1.85;;;1.30;;
78916;SDS011;68315;48.608;11.436;2023-07-13T13:49:50;1.85;;;1.23;;
78916;SDS011;68315;48.608;11.436;2023-07-13T13:52:16;2.20;;;1.40;;
78916;SDS011;68315;48.608;11.436;2023-07-13T13:54:41;2.37;;;1.40;;
78916;SDS011;68315;48.608;11.436;2023-07-13T13:57:06;4.20;;;1.27;;
78916;SDS011;68315;48.608;11.436;2023-07-13T13:59:33;1.92;;;1.30;;
78916;SDS011;68315;48.608;11.436;2023-07-13T14:02:07;2.67;;;1.45;;
78916;SDS011;68315;48.608;11.436;2023-07-13T14:04:47;1.67;;;1.23;;
78916;SDS011;68315;48.608;11.436;2023-07-13T14:07:12;2.95;;;1.30;;
78916;SDS011;68315;48.608;11.436;2023-07-13T14:09:38;1.93;;;1.27;;
78916;SDS011;68315;48.608;11.436;2023-07-13T14:12:03;1.23;;;1.13;;
78916;SDS011;68315;48.608;11.436;2023-07-13T14:14:30;4.55;;;1.50;;
78916;SDS011;68315;48.608;11.436;2023-07-13T14:16:57;3.35;;;1.27;;
78916;SDS011;68315;48.608;11.436;2023-07-13T14:19:22;2.70;;;1.40;;
78916;SDS011;68315;48.608;11.436;2023-07-13T14:21:48;5.13;;;1.40;;
78916;SDS011;68315;48.608;11.436;2023-07-13T14:24:14;4.32;;;1.73;;
78916;SDS011;68315;48.608;11.436;2023-07-13T14:26:40;1.65;;;1.20;;
78916;SDS011;68315;48.608;11.436;2023-07-13T14:29:13;2.17;;;1.70;;
78916;SDS011;68315;48.608;11.436;2023-07-13T14:31:41;2.67;;;1.42;;
78916;SDS011;68315;48.608;11.436;2023-07-13T14:34:07;3.15;;;1.27;;
78916;SDS011;68315;48.608;11.436;2023-07-13T14:36:39;2.00;;;1.40;;
78916;SDS011;68315;48.608;11.436;2023-07-13T14:39:14;3.05;;;1.45;;
78916;SDS011;68315;48.608;11.436;2023-07-13T14:41:42;2.50;;;1.27;;
78916;SDS011;68315;48.608;11.436;2023-07-13T14:44:14;2.55;;;1.30;;
78916;SDS011;68315;48.608;11.436;2023-07-13T14:46:42;1.90;;;1.20;;
78916;SDS011;68315;48.608;11.436;2023-07-13T14:49:13;1.58;;;1.10;;
78916;SDS011;68315;48.608;11.436;2023-07-13T14:51:44;1.55;;;1.15;;
78916;SDS011;68315;48.608;11.436;2023-07-13T14:54:09;2.53;;;1.40;;
78916;SDS011;68315;48.608;11.436;2023-07-13T14:56:34;2.85;;;1.35;;
78916;SDS011;68315;48.608;11.436;2023-07-13T14:59:00;4.17;;;1.30;;
78916;SDS011;68315;48.608;11.436;2023-07-13T15:01:25;4.03;;;1.95;;
78916;SDS011;68315;48.608;11.436;2023-07-13T15:03:51;2.95;;;1.50;;
78916;SDS011;68315;48.608;11.436;2023-07-13T15:06:17;2.53;;;1.50;;
78916;SDS011;68315;48.608;11.436;2023-07-13T15:08:44;3.13;;;1.45;;